Terminal Aerodrome Forecast
Issued by NWS

Home | Current Version | Previous Version | Text Only | Print | Product List | Glossary On
Versions: 1 2 3 4 5 6 7 8 9 10 11 12 13 14 15 16 17 18 19
367
FTUS43 KUNR 171120
TAFGCC
TAF
KGCC 171120Z 1712/1812 36009KT P6SM BKN040
      TEMPO 1712/1714 1SM -SN BKN015
     FM171800 34013KT P6SM VCSH OVC020
     FM180000 32013KT P6SM SCT025 BKN040=

USA.gov is the U.S. government's official web portal to all federal, state and local government web resources and services.